createdAt,value
2022-10-13T00:00:57.430Z,2.88
2022-10-13T00:03:24.263Z,2.88
2022-10-13T00:05:51.572Z,3.00
2022-10-13T00:08:21.046Z,2.45
2022-10-13T00:10:49.969Z,3.03
2022-10-13T00:13:20.147Z,2.70
2022-10-13T00:15:47.807Z,3.10
2022-10-13T00:18:15.284Z,3.42
2022-10-13T00:20:48.118Z,2.80
2022-10-13T00:23:15.885Z,2.78
2022-10-13T00:25:44.361Z,3.20
2022-10-13T00:28:12.104Z,3.20
2022-10-13T00:30:38.967Z,3.13
2022-10-13T00:33:05.768Z,2.95
2022-10-13T00:35:33.081Z,2.90
2022-10-13T00:37:59.843Z,2.92
2022-10-13T00:40:30.759Z,3.10
2022-10-13T00:42:57.333Z,2.83
2022-10-13T00:45:28.173Z,3.58
2022-10-13T00:48:01.249Z,3.00
2022-10-13T00:50:33.456Z,2.72
2022-10-13T00:53:03.174Z,3.40
2022-10-13T00:55:33.473Z,3.13
2022-10-13T00:58:05.436Z,3.08
2022-10-13T01:00:34.064Z,2.85
2022-10-13T01:03:02.191Z,3.03
2022-10-13T01:05:29.698Z,3.42
2022-10-13T01:07:57.340Z,3.47
2022-10-13T01:10:42.313Z,3.03
2022-10-13T01:13:31.924Z,2.80
2022-10-13T01:16:23.519Z,3.25
2022-10-13T01:19:19.752Z,3.00
2022-10-13T01:21:52.482Z,3.10
2022-10-13T01:24:40.645Z,3.60
2022-10-13T01:27:55.142Z,3.30
2022-10-13T01:30:22.963Z,3.08
2022-10-13T01:33:16.883Z,3.13
2022-10-13T01:35:43.441Z,3.03
2022-10-13T01:38:25.307Z,3.40
2022-10-13T01:41:10.238Z,3.10
2022-10-13T01:43:50.458Z,3.10
2022-10-13T01:46:32.360Z,3.10
2022-10-13T01:49:04.096Z,3.83
2022-10-13T01:51:32.501Z,3.70
2022-10-13T01:53:59.514Z,3.80
2022-10-13T01:56:26.342Z,3.45
2022-10-13T01:58:55.066Z,3.53
2022-10-13T02:01:40.176Z,3.50
2022-10-13T02:04:22.984Z,3.70
2022-10-13T02:06:55.668Z,3.08
2022-10-13T02:09:41.413Z,3.95
2022-10-13T02:12:26.380Z,3.35
2022-10-13T02:14:55.679Z,3.60
2022-10-13T02:17:22.915Z,3.33
2022-10-13T02:19:49.782Z,3.70
2022-10-13T02:22:17.705Z,3.47
2022-10-13T02:24:44.444Z,4.07
2022-10-13T02:27:11.060Z,3.58
2022-10-13T02:29:50.220Z,3.65
2022-10-13T02:32:17.225Z,3.63
2022-10-13T02:34:44.127Z,3.35
2022-10-13T02:37:11.235Z,4.10
2022-10-13T02:39:37.794Z,4.05
2022-10-13T02:42:04.626Z,3.97
2022-10-13T02:44:31.258Z,3.92
2022-10-13T02:46:57.966Z,3.65
2022-10-13T02:49:24.568Z,4.82
2022-10-13T02:51:51.164Z,3.95
2022-10-13T02:54:17.782Z,3.90
2022-10-13T02:56:44.359Z,3.92
2022-10-13T02:59:10.893Z,3.90
2022-10-13T03:01:41.270Z,3.67
2022-10-13T03:04:08.993Z,4.05
2022-10-13T03:06:35.577Z,4.13
2022-10-13T03:09:02.113Z,3.85
2022-10-13T03:11:28.689Z,3.95
2022-10-13T03:13:55.505Z,3.80
2022-10-13T03:16:22.285Z,4.10
2022-10-13T03:18:49.029Z,4.03
2022-10-13T03:21:15.606Z,4.00
2022-10-13T03:23:42.186Z,3.78
2022-10-13T03:26:09.869Z,4.43
2022-10-13T03:28:36.570Z,4.28
2022-10-13T03:31:08.679Z,4.05
2022-10-13T03:33:35.266Z,4.10
2022-10-13T03:36:03.454Z,4.53
2022-10-13T03:38:31.098Z,3.88
2022-10-13T03:40:57.724Z,3.95
2022-10-13T03:43:25.255Z,4.20
2022-10-13T03:45:59.295Z,4.05
2022-10-13T03:48:26.382Z,3.72
2022-10-13T03:50:53.273Z,4.20
2022-10-13T03:53:20.489Z,3.85
2022-10-13T03:55:55.781Z,4.10
2022-10-13T03:58:24.744Z,4.03
2022-10-13T04:00:53.535Z,4.07
2022-10-13T04:03:20.659Z,3.70
2022-10-13T04:05:47.869Z,4.53
2022-10-13T04:08:14.939Z,4.45
2022-10-13T04:10:42.381Z,4.03
2022-10-13T04:13:08.972Z,4.70
2022-10-13T04:15:39.102Z,4.20
2022-10-13T04:18:07.875Z,4.32
2022-10-13T04:20:38.080Z,4.72
2022-10-13T04:23:04.712Z,4.03
2022-10-13T04:25:31.463Z,4.30
2022-10-13T04:27:58.032Z,4.20
2022-10-13T04:30:24.632Z,4.70
2022-10-13T04:32:51.170Z,4.40
2022-10-13T04:35:17.706Z,4.60
2022-10-13T04:37:45.298Z,4.70
2022-10-13T04:40:12.587Z,4.90
2022-10-13T04:42:39.178Z,5.03
2022-10-13T04:45:06.495Z,4.70
2022-10-13T04:47:37.105Z,4.10
2022-10-13T04:50:04.321Z,4.40
2022-10-13T04:52:30.951Z,4.22
2022-10-13T04:54:57.930Z,4.75
2022-10-13T04:57:24.555Z,11.18
2022-10-13T04:59:51.119Z,5.30
2022-10-13T05:02:18.035Z,4.40
2022-10-13T05:04:44.960Z,4.75
2022-10-13T05:07:18.072Z,4.00
2022-10-13T05:09:45.747Z,4.95
2022-10-13T05:12:12.865Z,4.60
2022-10-13T05:14:39.379Z,4.50
2022-10-13T05:17:07.427Z,4.53
2022-10-13T05:19:34.066Z,5.10
2022-10-13T05:22:00.777Z,4.63
2022-10-13T05:24:38.916Z,4.63
2022-10-13T05:27:08.566Z,5.10
2022-10-13T05:29:35.407Z,5.25
2022-10-13T05:32:02.052Z,5.43
2022-10-13T05:34:28.675Z,4.93
2022-10-13T05:36:55.279Z,4.95
2022-10-13T05:39:22.500Z,4.88
2022-10-13T05:41:49.135Z,4.90
2022-10-13T05:44:20.790Z,4.95
2022-10-13T05:46:53.422Z,5.00
2022-10-13T05:49:20.100Z,4.60
2022-10-13T05:51:50.415Z,5.07
2022-10-13T05:54:25.075Z,4.97
2022-10-13T05:56:57.353Z,5.55
2022-10-13T05:59:27.520Z,4.90
2022-10-13T06:01:55.049Z,5.20
2022-10-13T06:04:31.687Z,5.07
2022-10-13T06:06:58.285Z,5.03
2022-10-13T06:09:25.005Z,5.85
2022-10-13T06:11:51.604Z,5.45
2022-10-13T06:14:18.205Z,5.95
2022-10-13T06:16:44.775Z,5.07
2022-10-13T06:19:11.412Z,5.07
2022-10-13T06:21:37.959Z,5.63
2022-10-13T06:24:04.837Z,5.35
2022-10-13T06:26:31.414Z,5.40
2022-10-13T06:28:59.780Z,5.53
2022-10-13T06:31:27.442Z,5.47
2022-10-13T06:33:54.035Z,5.70
2022-10-13T06:36:20.844Z,5.60
2022-10-13T06:38:47.426Z,5.78
2022-10-13T06:41:15.003Z,5.32
2022-10-13T06:43:41.893Z,5.55
2022-10-13T06:46:11.843Z,5.63
2022-10-13T06:48:38.525Z,6.00
2022-10-13T06:51:08.364Z,6.07
2022-10-13T06:53:35.198Z,6.03
2022-10-13T06:56:04.295Z,6.05
2022-10-13T06:58:31.020Z,5.60
2022-10-13T07:00:57.949Z,6.53
2022-10-13T07:03:25.358Z,6.40
2022-10-13T07:05:52.048Z,6.63
2022-10-13T07:08:19.108Z,6.13
2022-10-13T07:10:45.651Z,6.25
2022-10-13T07:13:12.318Z,6.80
2022-10-13T07:15:40.352Z,6.70
2022-10-13T07:18:07.500Z,6.88
2022-10-13T07:20:34.121Z,7.05
2022-10-13T07:23:01.000Z,5.93
2022-10-13T07:25:28.092Z,6.70
2022-10-13T07:27:54.846Z,6.35
2022-10-13T07:30:21.625Z,6.75
2022-10-13T07:32:48.419Z,6.72
2022-10-13T07:35:15.160Z,6.75
2022-10-13T07:37:41.835Z,5.97
2022-10-13T07:40:08.967Z,6.20
2022-10-13T07:42:35.639Z,6.25
2022-10-13T07:45:02.260Z,9.98
2022-10-13T07:47:29.650Z,7.35
2022-10-13T07:49:56.281Z,6.75
2022-10-13T07:52:23.265Z,6.82
2022-10-13T07:54:50.823Z,7.13
2022-10-13T07:57:17.993Z,7.05
2022-10-13T07:59:44.775Z,6.85
2022-10-13T08:02:13.282Z,7.20
2022-10-13T08:04:40.099Z,7.18
2022-10-13T08:07:07.356Z,7.07
2022-10-13T08:09:35.684Z,7.70
2022-10-13T08:12:02.228Z,6.70
2022-10-13T08:14:30.170Z,7.00
2022-10-13T08:16:57.822Z,8.13
2022-10-13T08:19:26.557Z,8.30
2022-10-13T08:21:58.824Z,8.25
2022-10-13T08:24:27.409Z,7.88
2022-10-13T08:26:54.370Z,7.60
2022-10-13T08:29:22.988Z,8.45
2022-10-13T08:31:51.973Z,8.00
2022-10-13T08:34:19.209Z,7.20
2022-10-13T08:36:45.850Z,7.97
2022-10-13T08:39:13.878Z,8.13
2022-10-13T08:41:46.055Z,8.00
2022-10-13T08:45:06.211Z,8.00
2022-10-13T08:47:41.726Z,8.10
2022-10-13T08:50:25.391Z,8.25
2022-10-13T08:52:54.778Z,8.23
2022-10-13T08:55:37.097Z,8.15
2022-10-13T08:58:13.233Z,7.80
2022-10-13T09:00:41.035Z,8.27
2022-10-13T09:03:23.274Z,7.40
2022-10-13T09:06:13.444Z,8.23
2022-10-13T09:08:53.752Z,7.63
2022-10-13T09:11:21.129Z,7.80
2022-10-13T09:13:47.768Z,8.52
2022-10-13T09:16:14.395Z,8.52
2022-10-13T09:18:41.020Z,8.95
2022-10-13T09:21:25.972Z,8.95
2022-10-13T09:24:05.678Z,9.10
2022-10-13T09:26:37.569Z,8.95
2022-10-13T09:29:15.937Z,9.05
2022-10-13T09:31:42.808Z,9.13
2022-10-13T09:34:19.965Z,9.25
2022-10-13T09:37:00.302Z,9.10
2022-10-13T09:39:27.839Z,9.75
2022-10-13T09:42:20.568Z,9.18
2022-10-13T09:44:56.079Z,8.80
2022-10-13T09:47:28.865Z,9.45
2022-10-13T09:50:18.896Z,9.00
2022-10-13T09:52:47.645Z,8.82
2022-10-13T09:55:32.410Z,9.48
2022-10-13T09:58:24.289Z,9.52
2022-10-13T10:00:53.789Z,8.98
2022-10-13T10:03:25.789Z,10.32
2022-10-13T10:05:58.360Z,9.55
2022-10-13T10:09:02.792Z,10.05
2022-10-13T10:11:42.015Z,9.57
2022-10-13T10:14:16.044Z,8.98
2022-10-13T10:16:53.387Z,8.95
2022-10-13T10:19:26.880Z,9.68
2022-10-13T10:22:12.958Z,9.32
2022-10-13T10:24:59.351Z,9.75
2022-10-13T10:28:06.812Z,9.77
2022-10-13T10:30:43.049Z,9.68
2022-10-13T10:33:31.074Z,9.93
2022-10-13T10:36:17.068Z,9.52
2022-10-13T10:39:00.511Z,10.37
2022-10-13T10:41:54.298Z,10.45
2022-10-13T10:44:26.809Z,10.02
2022-10-13T10:46:59.719Z,9.68
2022-10-13T10:49:39.402Z,9.52
2022-10-13T10:52:08.907Z,9.70
2022-10-13T10:54:51.822Z,10.07
2022-10-13T10:57:33.754Z,10.23
2022-10-13T11:00:06.329Z,9.65
2022-10-13T11:02:47.733Z,9.10
2022-10-13T11:05:18.494Z,9.25
2022-10-13T11:07:51.133Z,9.98
2022-10-13T11:10:21.499Z,9.25
2022-10-13T11:12:53.228Z,9.70
2022-10-13T11:15:31.185Z,8.95
2022-10-13T11:17:58.427Z,9.52
2022-10-13T11:20:35.859Z,9.18
2022-10-13T11:23:05.680Z,9.60
2022-10-13T11:26:37.566Z,9.02
2022-10-13T11:29:18.838Z,8.75
2022-10-13T11:31:53.019Z,10.05
2022-10-13T11:34:30.857Z,9.60
2022-10-13T11:37:03.191Z,9.45
2022-10-13T11:40:03.981Z,8.38
2022-10-13T11:42:56.928Z,9.60
2022-10-13T11:45:54.274Z,9.05
2022-10-13T11:48:45.614Z,9.90
2022-10-13T11:51:45.879Z,9.13
2022-10-13T11:54:42.814Z,9.27
2022-10-13T11:57:25.635Z,9.43
2022-10-13T11:59:59.388Z,9.00
2022-10-13T12:02:29.431Z,8.95
2022-10-13T12:05:06.269Z,9.77
2022-10-13T12:07:44.103Z,8.70
2022-10-13T12:10:23.667Z,8.68
2022-10-13T12:12:51.419Z,7.97
2022-10-13T12:15:33.680Z,8.02
2022-10-13T12:18:00.477Z,8.82
2022-10-13T12:20:35.340Z,8.02
2022-10-13T12:23:02.263Z,8.02
2022-10-13T12:25:30.795Z,8.07
2022-10-13T12:28:02.963Z,7.88
2022-10-13T12:30:37.450Z,8.00
2022-10-13T12:33:22.111Z,7.88
2022-10-13T12:35:48.867Z,7.85
2022-10-13T12:38:19.596Z,8.35
2022-10-13T12:40:54.905Z,7.65
2022-10-13T12:43:25.606Z,8.15
2022-10-13T12:45:52.725Z,7.60
2022-10-13T12:48:36.702Z,7.88
2022-10-13T12:51:23.910Z,7.40
2022-10-13T12:53:50.613Z,7.25
2022-10-13T12:56:27.741Z,7.10
2022-10-13T12:58:57.623Z,7.35
2022-10-13T13:01:38.067Z,7.25
2022-10-13T13:04:23.271Z,7.25
2022-10-13T13:07:04.869Z,7.22
2022-10-13T13:09:33.495Z,7.38
2022-10-13T13:12:12.443Z,7.20
2022-10-13T13:14:42.412Z,6.95
2022-10-13T13:17:38.835Z,7.00
2022-10-13T13:20:32.359Z,6.78
2022-10-13T13:23:01.470Z,7.45
2022-10-13T13:25:28.096Z,6.93
2022-10-13T13:27:57.923Z,7.68
2022-10-13T13:30:24.909Z,6.78
2022-10-13T13:32:51.793Z,6.85
2022-10-13T13:35:25.000Z,6.57
2022-10-13T13:37:54.088Z,6.00
2022-10-13T13:40:26.815Z,6.32
2022-10-13T13:42:54.607Z,6.22
2022-10-13T13:45:25.464Z,7.47
2022-10-13T13:47:59.600Z,6.88
2022-10-13T13:50:33.895Z,7.57
2022-10-13T13:53:01.011Z,7.13
2022-10-13T13:55:29.609Z,6.30
2022-10-13T13:57:57.161Z,7.88
2022-10-13T14:00:25.993Z,6.45
2022-10-13T14:02:58.558Z,6.70
2022-10-13T14:05:25.702Z,6.65
2022-10-13T14:07:57.770Z,7.20
2022-10-13T14:10:26.015Z,6.75
2022-10-13T14:12:52.792Z,6.45
2022-10-13T14:15:19.701Z,6.82
2022-10-13T14:17:46.360Z,6.88
2022-10-13T14:20:12.974Z,6.88
2022-10-13T14:22:43.136Z,7.82
2022-10-13T14:25:18.557Z,6.80
2022-10-13T14:27:47.973Z,7.00
2022-10-13T14:30:15.184Z,7.65
2022-10-13T14:32:45.435Z,7.00
2022-10-13T14:35:17.177Z,7.43
2022-10-13T14:37:49.993Z,7.70
2022-10-13T14:40:16.625Z,6.85
2022-10-13T14:42:44.465Z,6.97
2022-10-13T14:45:18.729Z,7.15
2022-10-13T14:47:51.328Z,6.55
2022-10-13T14:50:32.980Z,6.82
2022-10-13T14:53:02.819Z,6.43
2022-10-13T14:55:32.487Z,6.65
2022-10-13T14:58:05.415Z,6.50
2022-10-13T15:00:35.938Z,6.50
2022-10-13T15:03:04.159Z,6.55
2022-10-13T15:05:38.012Z,6.60
2022-10-13T15:08:08.005Z,6.43
2022-10-13T15:10:41.784Z,6.60
2022-10-13T15:13:10.243Z,6.43
2022-10-13T15:15:48.643Z,5.85
2022-10-13T15:18:19.448Z,6.95
2022-10-13T15:20:55.404Z,6.50
2022-10-13T15:23:25.948Z,7.10
2022-10-13T15:26:02.278Z,6.20
2022-10-13T15:28:35.333Z,6.10
2022-10-13T15:31:02.479Z,7.38
2022-10-13T15:33:31.046Z,7.00
2022-10-13T15:36:01.976Z,6.93
2022-10-13T15:38:35.965Z,6.97
2022-10-13T15:41:08.915Z,7.15
2022-10-13T15:43:35.762Z,6.60
2022-10-13T15:46:24.107Z,7.30
2022-10-13T15:48:51.920Z,6.38
2022-10-13T15:51:20.363Z,6.38
2022-10-13T15:53:48.353Z,6.68
2022-10-13T15:56:16.367Z,6.63
2022-10-13T15:58:42.919Z,6.65
2022-10-13T16:01:14.009Z,7.03
2022-10-13T16:03:41.366Z,6.55
2022-10-13T16:06:11.927Z,6.88
2022-10-13T16:08:43.733Z,6.35
2022-10-13T16:11:16.134Z,6.50
2022-10-13T16:13:49.856Z,6.70
2022-10-13T16:16:17.128Z,6.43
2022-10-13T16:18:44.938Z,6.75
2022-10-13T16:21:19.802Z,6.60
2022-10-13T16:23:47.502Z,6.47
2022-10-13T16:26:15.632Z,6.88
2022-10-13T16:28:42.373Z,6.72
2022-10-13T16:31:15.451Z,7.38
2022-10-13T16:33:44.231Z,7.07
2022-10-13T16:36:16.412Z,7.00
2022-10-13T16:38:44.445Z,7.32
2022-10-13T16:41:16.797Z,6.97
2022-10-13T16:43:44.555Z,6.75
2022-10-13T16:46:13.434Z,7.10
2022-10-13T16:48:45.011Z,7.43
2022-10-13T16:51:17.832Z,6.88
2022-10-13T16:53:48.083Z,7.30
2022-10-13T16:56:14.938Z,6.25
2022-10-13T16:58:45.264Z,6.63
2022-10-13T17:01:13.075Z,6.57
2022-10-13T17:03:42.970Z,6.85
2022-10-13T17:06:09.778Z,7.93
2022-10-13T17:08:37.462Z,7.68
2022-10-13T17:11:05.820Z,8.05
2022-10-13T17:13:34.289Z,7.63
2022-10-13T17:16:00.818Z,8.00
2022-10-13T17:18:27.786Z,7.90
2022-10-13T17:20:58.375Z,7.93
2022-10-13T17:23:25.732Z,7.68
2022-10-13T17:25:53.332Z,7.20
2022-10-13T17:28:23.297Z,7.28
2022-10-13T17:31:14.866Z,7.05
2022-10-13T17:33:44.031Z,7.55
2022-10-13T17:36:19.457Z,7.63
2022-10-13T17:38:47.953Z,8.63
2022-10-13T17:41:18.084Z,7.63
2022-10-13T17:43:49.635Z,7.22
2022-10-13T17:46:39.307Z,7.32
2022-10-13T17:49:11.152Z,12.25
2022-10-13T17:51:38.398Z,10.38
2022-10-13T17:54:05.563Z,9.48
2022-10-13T17:56:32.623Z,9.38
2022-10-13T17:59:00.509Z,9.60
2022-10-13T18:01:33.789Z,9.75
2022-10-13T18:04:03.632Z,10.05
2022-10-13T18:06:37.944Z,10.45
2022-10-13T18:09:10.758Z,10.02
2022-10-13T18:11:38.103Z,9.60
2022-10-13T18:14:05.706Z,10.10
2022-10-13T18:16:32.536Z,10.38
2022-10-13T18:18:59.033Z,9.98
2022-10-13T18:21:29.227Z,10.07
2022-10-13T18:24:01.402Z,9.88
2022-10-13T18:26:32.056Z,9.82
2022-10-13T18:28:59.173Z,9.73
2022-10-13T18:31:28.721Z,10.90
2022-10-13T18:34:10.661Z,10.80
2022-10-13T18:36:39.911Z,10.63
2022-10-13T18:39:12.798Z,11.35
2022-10-13T18:41:40.847Z,11.27
2022-10-13T18:44:08.179Z,11.40
2022-10-13T18:46:38.702Z,11.25
2022-10-13T18:49:13.032Z,10.68
2022-10-13T18:51:41.991Z,11.20
2022-10-13T18:54:08.629Z,11.32
2022-10-13T18:56:37.072Z,12.27
2022-10-13T18:59:06.126Z,13.32
2022-10-13T19:01:43.845Z,13.00
2022-10-13T19:04:15.090Z,12.55
2022-10-13T19:06:42.967Z,11.95
2022-10-13T19:09:13.136Z,12.15
2022-10-13T19:11:40.313Z,12.40
2022-10-13T19:14:10.856Z,12.90
2022-10-13T19:16:39.597Z,12.68
2022-10-13T19:19:08.857Z,12.35
2022-10-13T19:21:42.759Z,12.30
2022-10-13T19:24:11.541Z,12.55
2022-10-13T19:26:38.759Z,13.07
2022-10-13T19:29:08.983Z,12.07
2022-10-13T19:31:37.956Z,12.75
2022-10-13T19:34:06.803Z,12.15
2022-10-13T19:36:41.666Z,12.43
2022-10-13T19:39:15.903Z,13.73
2022-10-13T19:41:44.760Z,12.68
2022-10-13T19:44:11.832Z,13.40
2022-10-13T19:46:40.202Z,13.15
2022-10-13T19:49:07.456Z,14.85
2022-10-13T19:51:35.395Z,13.68
2022-10-13T19:54:02.218Z,14.43
2022-10-13T19:56:36.462Z,13.23
2022-10-13T19:59:06.351Z,13.38
2022-10-13T20:01:39.776Z,14.65
2022-10-13T20:04:13.228Z,13.90
2022-10-13T20:06:43.447Z,14.73
2022-10-13T20:09:10.086Z,14.13
2022-10-13T20:11:36.616Z,16.10
2022-10-13T20:14:03.633Z,16.77
2022-10-13T20:16:30.348Z,16.02
2022-10-13T20:18:59.355Z,16.08
2022-10-13T20:21:28.418Z,15.95
2022-10-13T20:23:55.697Z,15.50
2022-10-13T20:26:23.000Z,15.18
2022-10-13T20:28:50.739Z,15.73
2022-10-13T20:31:19.760Z,15.43
2022-10-13T20:33:47.107Z,14.95
2022-10-13T20:36:15.665Z,15.07
2022-10-13T20:38:42.436Z,15.90
2022-10-13T20:41:15.946Z,14.77
2022-10-13T20:43:42.830Z,15.63
2022-10-13T20:46:10.126Z,15.15
2022-10-13T20:49:05.179Z,16.60
2022-10-13T20:51:25.711Z,15.23
2022-10-13T20:53:52.618Z,15.45
2022-10-13T20:56:22.242Z,16.20
2022-10-13T20:58:50.106Z,16.30
2022-10-13T21:01:18.531Z,15.52
2022-10-13T21:03:45.159Z,16.35
2022-10-13T21:06:13.927Z,15.82
2022-10-13T21:08:40.870Z,16.17
2022-10-13T21:11:09.624Z,16.70
2022-10-13T21:13:39.163Z,17.40
2022-10-13T21:16:13.982Z,16.52
2022-10-13T21:18:43.176Z,17.67
2022-10-13T21:21:11.128Z,17.55
2022-10-13T21:23:39.732Z,17.02
2022-10-13T21:26:08.732Z,17.80
2022-10-13T21:28:39.323Z,17.30
2022-10-13T21:31:11.689Z,18.45
2022-10-13T21:33:39.536Z,19.05
2022-10-13T21:36:20.317Z,18.30
2022-10-13T21:38:52.042Z,17.52
2022-10-13T21:41:18.691Z,18.20
2022-10-13T21:43:45.322Z,19.08
2022-10-13T21:46:14.451Z,17.52
2022-10-13T21:49:03.574Z,18.20
2022-10-13T21:51:33.349Z,17.95
2022-10-13T21:54:06.597Z,18.45
2022-10-13T21:56:33.902Z,19.20
2022-10-13T21:59:01.352Z,18.67
2022-10-13T22:01:28.733Z,19.25
2022-10-13T22:04:00.357Z,18.50
2022-10-13T22:06:28.889Z,19.02
2022-10-13T22:08:57.732Z,19.35
2022-10-13T22:11:26.967Z,18.85
2022-10-13T22:13:55.290Z,19.02
2022-10-13T22:16:24.358Z,18.27
2022-10-13T22:18:53.242Z,18.13
2022-10-13T22:21:22.946Z,18.55
2022-10-13T22:23:50.001Z,18.38
2022-10-13T22:26:18.188Z,18.48
2022-10-13T22:28:48.170Z,18.75
2022-10-13T22:31:14.972Z,18.27
2022-10-13T22:33:42.938Z,18.25
2022-10-13T22:36:13.046Z,19.13
2022-10-13T22:38:39.698Z,17.60
2022-10-13T22:41:08.009Z,18.98
2022-10-13T22:43:35.831Z,18.77
2022-10-13T22:46:16.480Z,19.08
2022-10-13T22:48:43.807Z,19.10
2022-10-13T22:51:12.252Z,19.05
2022-10-13T22:53:39.359Z,18.27
2022-10-13T22:56:12.295Z,18.60
2022-10-13T22:58:39.265Z,19.35
2022-10-13T23:01:15.093Z,19.23
2022-10-13T23:03:42.503Z,18.52
2022-10-13T23:06:13.610Z,18.45
2022-10-13T23:08:40.550Z,18.40
2022-10-13T23:11:07.249Z,18.92
2022-10-13T23:13:33.851Z,19.65
2022-10-13T23:16:05.868Z,20.17
2022-10-13T23:18:37.591Z,19.08
2022-10-13T23:21:08.733Z,20.35
2022-10-13T23:23:35.521Z,19.45
2022-10-13T23:26:06.788Z,19.20
2022-10-13T23:28:33.918Z,19.10
2022-10-13T23:31:06.977Z,18.88
2022-10-13T23:33:34.506Z,18.75
2022-10-13T23:36:02.092Z,19.13
2022-10-13T23:38:30.489Z,19.08
2022-10-13T23:41:06.333Z,18.50
2022-10-13T23:43:34.274Z,18.95
2022-10-13T23:46:01.070Z,18.50
2022-10-13T23:48:28.392Z,19.00
2022-10-13T23:50:55.453Z,19.38
2022-10-13T23:53:22.244Z,19.27
2022-10-13T23:55:48.927Z,20.02
2022-10-13T23:58:15.606Z,19.75
